Far Supporter — MVEU7 — position and weather

sailwx.info

Track history (hours):
 
Tides and Currents Weather Stations Pressure Air Temp Water Temp Dewpoint Dewpoint Depression Visibility Wind Speed Wind Dir Waves Ship Positions

Far Supporter

Last reported at 2018-May-03 15:21 UTC. Time now 2018-Jun-23 14:18 UTC.
Position N 01°24' E 104°28'.
Warning: this ship's position is 50 days out of date.

Length 84 m; draft 4 m.

Type: Cargo ship. MMSI: 233795000.

Date/timePositionNaut miles runAvg speedWind from/ knotsBaromVisibWave heightAir tempDewpointWater temp
2018-May-03 15:21N 01°24' E 104°28'410.9
2018-May-03 14:57N 01°21' E 104°25'510.0
2018-May-03 14:28N 01°18' E 104°21'5 9.5
2018-May-03 13:55N 01°16' E 104°16'4 9.5
2018-May-03 13:29N 01°16' E 104°12'5 9.7
2018-May-03 12:59N 01°14' E 104°07'4 9.2
2018-May-03 12:30N 01°14' E 104°03'5 9.8
2018-May-03 11:57N 01°13' E 103°58'510.2
2018-May-03 11:30N 01°12' E 103°53'5 9.8
2018-May-03 10:59N 01°10' E 103°49'5 9.8
2018-May-03 10:30N 01°07' E 103°45'5 9.0
2018-May-03 10:00N 01°04' E 103°42'4 7.3
2018-May-03 09:30N 01°03' E 103°38'4 8.3
2018-May-03 09:00N 01°06' E 103°35'4 7.1
2018-May-03 08:30N 01°09' E 103°34'4 8.7
2018-May-03 07:59N 01°11' E 103°38'3 6.3
2018-May-03 07:30N 01°13' E 103°40'4 7.1
2018-May-03 07:00N 01°17' E 103°39'2 2.2
2018-May-03 06:03N 01°19' E 103°39'0 0.0
2018-May-03 05:50N 01°19' E 103°39'0 0.0
2018-May-03 05:20N 01°19' E 103°39'0 0.0
2018-May-03 04:56N 01°19' E 103°39'0 0.0
2018-May-03 04:17N 01°19' E 103°39'0 0.0
2018-May-03 03:59N 01°19' E 103°39'0 0.0
2018-May-03 03:26N 01°19' E 103°39'0 0.0
2018-May-03 02:32N 01°19' E 103°39'0 0.0
2018-May-03 02:23N 01°19' E 103°39'0 0.0
2018-May-03 01:59N 01°19' E 103°39'0 0.0
2018-May-03 00:57N 01°19' E 103°39'0 0.0
2018-May-03 00:25N 01°19' E 103°39'0 0.0
2018-May-02 23:55N 01°19' E 103°39'0 0.0
2018-May-02 23:24N 01°19' E 103°39'0 0.0
2018-May-02 23:00N 01°19' E 103°39'0 0.0
2018-May-02 22:28N 01°19' E 103°39'0 0.0
2018-May-02 21:58N 01°19' E 103°39'0 0.0
2018-May-02 21:13N 01°19' E 103°39'0 0.0
2018-May-02 20:55N 01°19' E 103°39'0 0.0
2018-May-02 20:28N 01°19' E 103°39'0 0.0
2018-May-02 19:34N 01°19' E 103°39'0 0.0
2018-May-02 19:28N 01°19' E 103°39'0 0.0
2018-May-02 18:57N 01°19' E 103°39'0 0.0
2018-May-02 18:19N 01°19' E 103°39'0 0.0
2018-May-02 17:59N 01°19' E 103°39'0 0.0
2018-May-02 17:28N 01°19' E 103°39'0 0.0
2018-May-02 16:58N 01°19' E 103°39'0 0.0
2018-May-02 16:29N 01°19' E 103°39'0 0.0
2018-May-02 15:58N 01°19' E 103°39'0 0.0
2018-May-02 15:22N 01°19' E 103°39'0 0.0
2018-May-02 14:45N 01°19' E 103°39'0 0.0
2018-May-02 14:25N 01°19' E 103°39'0 0.0
2018-May-02 13:57N 01°19' E 103°39'0 0.0
2018-May-02 12:22N 01°19' E 103°39'0 0.0
2018-May-02 11:55N 01°19' E 103°39'0 0.0
2018-May-02 11:30N 01°19' E 103°39'0 0.0
2018-May-02 10:57N 01°19' E 103°39'0 0.0
2018-May-02 10:22N 01°19' E 103°39'0 0.0
2018-May-02 09:45N 01°19' E 103°39'0 0.0
2018-May-02 09:19N 01°19' E 103°39'0 0.0
2018-May-02 08:56N 01°19' E 103°39'0 0.0
2018-May-02 08:24N 01°19' E 103°39'0 0.0
2018-May-02 07:04N 01°19' E 103°39'0 0.0
2018-May-02 06:51N 01°19' E 103°39'0 0.0
2018-May-02 06:30N 01°19' E 103°39'0 0.0
2018-May-02 05:59N 01°19' E 103°39'0 0.0
2018-May-02 05:22N 01°19' E 103°39'0 0.0
2018-May-02 04:33N 01°19' E 103°39'0 0.0
2018-May-02 04:27N 01°19' E 103°39'0 0.0
2018-May-02 03:53N 01°19' E 103°39'0 0.0
2018-May-02 03:19N 01°19' E 103°39'0 0.0
2018-May-02 02:46N 01°19' E 103°39'0 0.0
2018-May-02 02:30N 01°19' E 103°39'0 0.0
2018-May-02 01:42N 01°19' E 103°39'0 0.0
2018-May-02 01:25N 01°19' E 103°39'0 0.0
2018-May-02 00:53N 01°19' E 103°39'0 0.0
2018-May-02 00:28N 01°19' E 103°39'0 0.0
2018-May-01 23:57N 01°19' E 103°39'0 0.0
2018-May-01 23:25N 01°19' E 103°39'0 0.0
2018-May-01 22:58N 01°19' E 103°39'0 0.0
2018-May-01 22:21N 01°19' E 103°39'0 0.0
2018-May-01 21:54N 01°19' E 103°39'0 0.0
2018-May-01 21:25N 01°19' E 103°39'0 0.0
2018-May-01 20:51N 01°19' E 103°39'0 0.0
2018-May-01 20:23N 01°19' E 103°39'0 0.0
2018-May-01 19:58N 01°19' E 103°39'0 0.0
2018-May-01 19:23N 01°19' E 103°39'0 0.0
2018-May-01 18:48N 01°19' E 103°39'0 0.0
2018-May-01 18:30N 01°19' E 103°39'0 0.0
2018-May-01 17:48N 01°19' E 103°39'0 0.0
2018-May-01 17:30N 01°19' E 103°39'0 0.0
2018-May-01 16:57N 01°19' E 103°39'0 0.0
2018-May-01 16:30N 01°19' E 103°39'0 0.0
2018-May-01 15:58N 01°19' E 103°39'0 0.0
2018-May-01 15:27N 01°19' E 103°39'0 0.0
2018-May-01 14:54N 01°19' E 103°39'0 0.0
2018-May-01 14:25N 01°19' E 103°39'0 0.0
2018-May-01 13:56N 01°19' E 103°39'0 0.0
2018-May-01 13:29N 01°19' E 103°39'0 0.0
2018-May-01 12:56N 01°19' E 103°39'0 0.0
2018-May-01 12:08N 01°19' E 103°39'0 0.0
2018-May-01 11:57N 01°19' E 103°39'0 0.0
2018-May-01 11:30N 01°19' E 103°39'0 0.0
2018-May-01 10:24N 01°19' E 103°39'0 0.0
2018-May-01 09:59N 01°19' E 103°39'0 0.0
2018-May-01 09:10N 01°19' E 103°39'0 0.0
2018-May-01 08:56N 01°19' E 103°39'0 0.0
2018-May-01 07:23N 01°19' E 103°39'0 0.0
2018-May-01 06:55N 01°19' E 103°39'0 0.0
2018-May-01 06:24N 01°19' E 103°39'0 0.0
2018-May-01 05:44N 01°19' E 103°39'0 0.0
2018-May-01 05:29N 01°19' E 103°39'0 0.0
2018-May-01 04:43N 01°19' E 103°39'0 0.0
2018-May-01 04:21N 01°19' E 103°39'0 0.0
2018-May-01 03:50N 01°19' E 103°39'0 0.0
2018-May-01 02:45N 01°19' E 103°39'0 0.0
2018-May-01 02:29N 01°19' E 103°39'0 0.0
2018-May-01 01:59N 01°19' E 103°39'0 0.0
2018-May-01 01:27N 01°19' E 103°39'0 0.0
2018-May-01 01:00N 01°19' E 103°39'0 0.0
2018-May-01 00:23N 01°19' E 103°39'0 0.0
2018-Apr-30 23:59N 01°19' E 103°39'0 0.0
2018-Apr-30 23:20N 01°19' E 103°39'0 0.0
2018-Apr-30 22:50N 01°19' E 103°39'0 0.0
2018-Apr-30 22:21N 01°19' E 103°39'0 0.0
2018-Apr-30 21:53N 01°19' E 103°39'0 0.0
2018-Apr-30 21:29N 01°19' E 103°39'0 0.0
2018-Apr-30 20:44N 01°19' E 103°39'0 0.0
2018-Apr-30 20:26N 01°19' E 103°39'0 0.0
2018-Apr-30 19:56N 01°19' E 103°39'0 0.0
2018-Apr-30 19:21N 01°19' E 103°39'0 0.0
2018-Apr-30 18:57N 01°19' E 103°39'0 0.0
2018-Apr-30 17:15N 01°19' E 103°39'0 0.0
2018-Apr-30 15:56N 01°19' E 103°39'0 0.0
2018-Apr-30 15:18N 01°19' E 103°39'0 0.0
2018-Apr-30 14:59N 01°19' E 103°39'0 0.0
2018-Apr-30 14:14N 01°19' E 103°39'0 0.0
2018-Apr-30 13:45N 01°19' E 103°39'0 0.0
2018-Apr-30 13:26N 01°19' E 103°39'0 0.0
2018-Apr-30 12:54N 01°19' E 103°39'0 0.0
2018-Apr-30 12:26N 01°19' E 103°39'0 0.0
2018-Apr-30 11:51N 01°19' E 103°39'0 0.0
2018-Apr-30 11:30N 01°19' E 103°39'0 0.0
2018-Apr-30 10:59N 01°19' E 103°39'0 0.0
2018-Apr-30 10:29N 01°19' E 103°39'0 0.0
2018-Apr-30 09:59N 01°19' E 103°39'0 0.0
2018-Apr-30 09:27N 01°19' E 103°39'0 0.0
2018-Apr-30 08:51N 01°19' E 103°39'0 0.0
2018-Apr-30 07:54N 01°19' E 103°39'0 0.0
2018-Apr-30 07:30N 01°19' E 103°39'0 0.0
2018-Apr-30 07:00N 01°19' E 103°39'0 0.0
2018-Apr-30 06:30N 01°19' E 103°39'0 0.0
2018-Apr-30 05:57N 01°19' E 103°39'0 0.0
2018-Apr-30 05:23N 01°19' E 103°39'0 0.0
2018-Apr-30 03:51N 01°19' E 103°39'0 0.0
2018-Apr-30 03:30N 01°19' E 103°39'1 1.2
2018-Apr-30 03:00N 01°18' E 103°39'2 5.1
2018-Apr-30 02:30N 01°16' E 103°39'4 8.3
2018-Apr-30 02:00N 01°12' E 103°41'0 0.1
2018-Apr-30 01:30N 01°12' E 103°41'1 1.5
2018-Apr-30 01:00N 01°12' E 103°40'4 7.8
2018-Apr-30 00:30N 01°13' E 103°36'1 2.1
2018-Apr-29 23:59N 01°13' E 103°36'0 0.0
2018-Apr-29 23:25N 01°13' E 103°36'1 1.7
2018-Apr-29 23:00N 01°14' E 103°35'2 3.5
2018-Apr-29 22:30N 01°13' E 103°33'3 5.9
2018-Apr-29 21:59N 01°10' E 103°32'4 7.3
2018-Apr-29 21:28N 01°10' E 103°28'3 7.1
2018-Apr-29 20:59N 01°12' E 103°25'4 7.5
2018-Apr-29 20:30N 01°14' E 103°22'4 7.5
2018-Apr-29 19:56N 01°17' E 103°19'3 7.7
2018-Apr-29 19:29N 01°19' E 103°16'  
Track history (hours):
 
Tides and Currents Weather Stations Pressure Air Temp Water Temp Dewpoint Dewpoint Depression Visibility Wind Speed Wind Dir Waves Ship Positions

Far Supporter

Last reported at 2018-May-03 15:21 UTC. Time now 2018-Jun-23 14:18 UTC.
Position N 01°24' E 104°28'.
Warning: this ship's position is 50 days out of date.

Length 84 m; draft 4 m.

Type: Cargo ship. MMSI: 233795000.

Date/timePositionNaut miles runAvg speedWind from/ knotsBaromVisibWave heightAir tempDewpointWater temp
2018-May-03 15:21N 01°24' E 104°28'410.9
2018-May-03 14:57N 01°21' E 104°25'510.0
2018-May-03 14:28N 01°18' E 104°21'5 9.5
2018-May-03 13:55N 01°16' E 104°16'4 9.5
2018-May-03 13:29N 01°16' E 104°12'5 9.7
2018-May-03 12:59N 01°14' E 104°07'4 9.2
2018-May-03 12:30N 01°14' E 104°03'5 9.8
2018-May-03 11:57N 01°13' E 103°58'510.2
2018-May-03 11:30N 01°12' E 103°53'5 9.8
2018-May-03 10:59N 01°10' E 103°49'5 9.8
2018-May-03 10:30N 01°07' E 103°45'5 9.0
2018-May-03 10:00N 01°04' E 103°42'4 7.3
2018-May-03 09:30N 01°03' E 103°38'4 8.3
2018-May-03 09:00N 01°06' E 103°35'4 7.1
2018-May-03 08:30N 01°09' E 103°34'4 8.7
2018-May-03 07:59N 01°11' E 103°38'3 6.3
2018-May-03 07:30N 01°13' E 103°40'4 7.1
2018-May-03 07:00N 01°17' E 103°39'2 2.2
2018-May-03 06:03N 01°19' E 103°39'0 0.0
2018-May-03 05:50N 01°19' E 103°39'0 0.0
2018-May-03 05:20N 01°19' E 103°39'0 0.0
2018-May-03 04:56N 01°19' E 103°39'0 0.0
2018-May-03 04:17N 01°19' E 103°39'0 0.0
2018-May-03 03:59N 01°19' E 103°39'0 0.0
2018-May-03 03:26N 01°19' E 103°39'0 0.0
2018-May-03 02:32N 01°19' E 103°39'0 0.0
2018-May-03 02:23N 01°19' E 103°39'0 0.0
2018-May-03 01:59N 01°19' E 103°39'0 0.0
2018-May-03 00:57N 01°19' E 103°39'0 0.0
2018-May-03 00:25N 01°19' E 103°39'0 0.0
2018-May-02 23:55N 01°19' E 103°39'0 0.0
2018-May-02 23:24N 01°19' E 103°39'0 0.0
2018-May-02 23:00N 01°19' E 103°39'0 0.0
2018-May-02 22:28N 01°19' E 103°39'0 0.0
2018-May-02 21:58N 01°19' E 103°39'0 0.0
2018-May-02 21:13N 01°19' E 103°39'0 0.0
2018-May-02 20:55N 01°19' E 103°39'0 0.0
2018-May-02 20:28N 01°19' E 103°39'0 0.0
2018-May-02 19:34N 01°19' E 103°39'0 0.0
2018-May-02 19:28N 01°19' E 103°39'0 0.0
2018-May-02 18:57N 01°19' E 103°39'0 0.0
2018-May-02 18:19N 01°19' E 103°39'0 0.0
2018-May-02 17:59N 01°19' E 103°39'0 0.0
2018-May-02 17:28N 01°19' E 103°39'0 0.0
2018-May-02 16:58N 01°19' E 103°39'0 0.0
2018-May-02 16:29N 01°19' E 103°39'0 0.0
2018-May-02 15:58N 01°19' E 103°39'0 0.0
2018-May-02 15:22N 01°19' E 103°39'0 0.0
2018-May-02 14:45N 01°19' E 103°39'0 0.0
2018-May-02 14:25N 01°19' E 103°39'0 0.0
2018-May-02 13:57N 01°19' E 103°39'0 0.0
2018-May-02 12:22N 01°19' E 103°39'0 0.0
2018-May-02 11:55N 01°19' E 103°39'0 0.0
2018-May-02 11:30N 01°19' E 103°39'0 0.0
2018-May-02 10:57N 01°19' E 103°39'0 0.0
2018-May-02 10:22N 01°19' E 103°39'0 0.0
2018-May-02 09:45N 01°19' E 103°39'0 0.0
2018-May-02 09:19N 01°19' E 103°39'0 0.0
2018-May-02 08:56N 01°19' E 103°39'0 0.0
2018-May-02 08:24N 01°19' E 103°39'0 0.0
2018-May-02 07:04N 01°19' E 103°39'0 0.0
2018-May-02 06:51N 01°19' E 103°39'0 0.0
2018-May-02 06:30N 01°19' E 103°39'0 0.0
2018-May-02 05:59N 01°19' E 103°39'0 0.0
2018-May-02 05:22N 01°19' E 103°39'0 0.0
2018-May-02 04:33N 01°19' E 103°39'0 0.0
2018-May-02 04:27N 01°19' E 103°39'0 0.0
2018-May-02 03:53N 01°19' E 103°39'0 0.0
2018-May-02 03:19N 01°19' E 103°39'0 0.0
2018-May-02 02:46N 01°19' E 103°39'0 0.0
2018-May-02 02:30N 01°19' E 103°39'0 0.0
2018-May-02 01:42N 01°19' E 103°39'0 0.0
2018-May-02 01:25N 01°19' E 103°39'0 0.0
2018-May-02 00:53N 01°19' E 103°39'0 0.0
2018-May-02 00:28N 01°19' E 103°39'0 0.0
2018-May-01 23:57N 01°19' E 103°39'0 0.0
2018-May-01 23:25N 01°19' E 103°39'0 0.0
2018-May-01 22:58N 01°19' E 103°39'0 0.0
2018-May-01 22:21N 01°19' E 103°39'0 0.0
2018-May-01 21:54N 01°19' E 103°39'0 0.0
2018-May-01 21:25N 01°19' E 103°39'0 0.0
2018-May-01 20:51N 01°19' E 103°39'0 0.0
2018-May-01 20:23N 01°19' E 103°39'0 0.0
2018-May-01 19:58N 01°19' E 103°39'0 0.0
2018-May-01 19:23N 01°19' E 103°39'0 0.0
2018-May-01 18:48N 01°19' E 103°39'0 0.0
2018-May-01 18:30N 01°19' E 103°39'0 0.0
2018-May-01 17:48N 01°19' E 103°39'0 0.0
2018-May-01 17:30N 01°19' E 103°39'0 0.0
2018-May-01 16:57N 01°19' E 103°39'0 0.0
2018-May-01 16:30N 01°19' E 103°39'0 0.0
2018-May-01 15:58N 01°19' E 103°39'0 0.0
2018-May-01 15:27N 01°19' E 103°39'0 0.0
2018-May-01 14:54N 01°19' E 103°39'0 0.0
2018-May-01 14:25N 01°19' E 103°39'0 0.0
2018-May-01 13:56N 01°19' E 103°39'0 0.0
2018-May-01 13:29N 01°19' E 103°39'0 0.0
2018-May-01 12:56N 01°19' E 103°39'0 0.0
2018-May-01 12:08N 01°19' E 103°39'0 0.0
2018-May-01 11:57N 01°19' E 103°39'0 0.0
2018-May-01 11:30N 01°19' E 103°39'0 0.0
2018-May-01 10:24N 01°19' E 103°39'0 0.0
2018-May-01 09:59N 01°19' E 103°39'0 0.0
2018-May-01 09:10N 01°19' E 103°39'0 0.0
2018-May-01 08:56N 01°19' E 103°39'0 0.0
2018-May-01 07:23N 01°19' E 103°39'0 0.0
2018-May-01 06:55N 01°19' E 103°39'0 0.0
2018-May-01 06:24N 01°19' E 103°39'0 0.0
2018-May-01 05:44N 01°19' E 103°39'0 0.0
2018-May-01 05:29N 01°19' E 103°39'0 0.0
2018-May-01 04:43N 01°19' E 103°39'0 0.0
2018-May-01 04:21N 01°19' E 103°39'0 0.0
2018-May-01 03:50N 01°19' E 103°39'0 0.0
2018-May-01 02:45N 01°19' E 103°39'0 0.0
2018-May-01 02:29N 01°19' E 103°39'0 0.0
2018-May-01 01:59N 01°19' E 103°39'0 0.0
2018-May-01 01:27N 01°19' E 103°39'0 0.0
2018-May-01 01:00N 01°19' E 103°39'0 0.0
2018-May-01 00:23N 01°19' E 103°39'0 0.0
2018-Apr-30 23:59N 01°19' E 103°39'0 0.0
2018-Apr-30 23:20N 01°19' E 103°39'0 0.0
2018-Apr-30 22:50N 01°19' E 103°39'0 0.0
2018-Apr-30 22:21N 01°19' E 103°39'0 0.0
2018-Apr-30 21:53N 01°19' E 103°39'0 0.0
2018-Apr-30 21:29N 01°19' E 103°39'0 0.0
2018-Apr-30 20:44N 01°19' E 103°39'0 0.0
2018-Apr-30 20:26N 01°19' E 103°39'0 0.0
2018-Apr-30 19:56N 01°19' E 103°39'0 0.0
2018-Apr-30 19:21N 01°19' E 103°39'0 0.0
2018-Apr-30 18:57N 01°19' E 103°39'0 0.0
2018-Apr-30 17:15N 01°19' E 103°39'0 0.0
2018-Apr-30 15:56N 01°19' E 103°39'0 0.0
2018-Apr-30 15:18N 01°19' E 103°39'0 0.0
2018-Apr-30 14:59N 01°19' E 103°39'0 0.0
2018-Apr-30 14:14N 01°19' E 103°39'0 0.0
2018-Apr-30 13:45N 01°19' E 103°39'0 0.0
2018-Apr-30 13:26N 01°19' E 103°39'0 0.0
2018-Apr-30 12:54N 01°19' E 103°39'0 0.0
2018-Apr-30 12:26N 01°19' E 103°39'0 0.0
2018-Apr-30 11:51N 01°19' E 103°39'0 0.0
2018-Apr-30 11:30N 01°19' E 103°39'0 0.0
2018-Apr-30 10:59N 01°19' E 103°39'0 0.0
2018-Apr-30 10:29N 01°19' E 103°39'0 0.0
2018-Apr-30 09:59N 01°19' E 103°39'0 0.0
2018-Apr-30 09:27N 01°19' E 103°39'0 0.0
2018-Apr-30 08:51N 01°19' E 103°39'0 0.0
2018-Apr-30 07:54N 01°19' E 103°39'0 0.0
2018-Apr-30 07:30N 01°19' E 103°39'0 0.0
2018-Apr-30 07:00N 01°19' E 103°39'0 0.0
2018-Apr-30 06:30N 01°19' E 103°39'0 0.0
2018-Apr-30 05:57N 01°19' E 103°39'0 0.0
2018-Apr-30 05:23N 01°19' E 103°39'0 0.0
2018-Apr-30 03:51N 01°19' E 103°39'0 0.0
2018-Apr-30 03:30N 01°19' E 103°39'1 1.2
2018-Apr-30 03:00N 01°18' E 103°39'2 5.1
2018-Apr-30 02:30N 01°16' E 103°39'4 8.3
2018-Apr-30 02:00N 01°12' E 103°41'0 0.1
2018-Apr-30 01:30N 01°12' E 103°41'1 1.5
2018-Apr-30 01:00N 01°12' E 103°40'4 7.8
2018-Apr-30 00:30N 01°13' E 103°36'1 2.1
2018-Apr-29 23:59N 01°13' E 103°36'0 0.0
2018-Apr-29 23:25N 01°13' E 103°36'1 1.7
2018-Apr-29 23:00N 01°14' E 103°35'2 3.5
2018-Apr-29 22:30N 01°13' E 103°33'3 5.9
2018-Apr-29 21:59N 01°10' E 103°32'4 7.3
2018-Apr-29 21:28N 01°10' E 103°28'3 7.1
2018-Apr-29 20:59N 01°12' E 103°25'4 7.5
2018-Apr-29 20:30N 01°14' E 103°22'4 7.5
2018-Apr-29 19:56N 01°17' E 103°19'3 7.7
2018-Apr-29 19:29N 01°19' E 103°16'  

Dump ship's entire track history